Time;durP1;ratioP1;P1;durP2;ratioP2;P2;SDS_P1;SDS_P2;PMS_P1;PMS_P2;Temp;Humidity;BMP_temperature;BMP_pressure;BME280_temperature;BME280_humidity;BME280_pressure;Samples;Min_cycle;Max_cycle;Signal;HPM_P1;HPM_P2
2023/10/17 00:01:44;;;;;;;7.97;1.60;;;;;;;17.74;64.37;99349.25;4981908;28;20039;-81
2023/10/17 00:06:50;;;;;;;8.43;1.60;;;;;;;17.76;64.54;99342.06;4970490;28;20042;-86
2023/10/17 00:09:23;;;;;;;7.07;1.40;;;;;;;17.81;63.82;99343.63;4971096;28;20035;-86
2023/10/17 00:14:20;;;;;;;7.10;1.10;;;;;;;17.81;64.43;99351.63;4970906;28;20058;-83
2023/10/17 00:16:46;;;;;;;8.75;1.42;;;;;;;17.77;64.63;99338.44;4970657;28;20117;-86
2023/10/17 00:19:16;;;;;;;8.93;1.60;;;;;;;17.77;65.13;99337.56;4971292;28;20118;-84
2023/10/17 00:21:42;;;;;;;6.43;1.83;;;;;;;17.79;64.82;99336.56;4973553;28;20027;-82
2023/10/17 00:24:08;;;;;;;9.18;1.52;;;;;;;17.81;65.30;99343.63;4972974;28;20085;-81
2023/10/17 00:26:39;;;;;;;6.65;1.40;;;;;;;17.84;65.11;99338.16;4970209;28;20034;-85
2023/10/17 00:29:05;;;;;;;5.67;1.20;;;;;;;17.84;65.04;99332.81;4970780;28;20034;-84
2023/10/17 00:31:36;;;;;;;7.22;1.38;;;;;;;17.86;65.20;99336.25;4970831;28;20077;-86
2023/10/17 00:34:07;;;;;;;6.93;1.55;;;;;;;17.83;66.01;99331.09;4966115;28;20030;-84
2023/10/17 00:36:33;;;;;;;6.10;1.45;;;;;;;17.83;66.30;99325.78;4937267;29;20431;-82
2023/10/17 00:39:10;;;;;;;8.00;1.55;;;;;;;17.81;66.15;99327.66;4951577;29;20121;-81
2023/10/17 00:44:29;;;;;;;6.93;1.20;;;;;;;17.85;66.13;99318.56;4954536;29;20263;-85
2023/10/17 00:46:55;;;;;;;7.05;1.50;;;;;;;17.86;66.00;99320.28;4937153;29;20027;-82
2023/10/17 00:49:22;;;;;;;6.60;1.40;;;;;;;17.87;66.01;99314.91;4954386;29;20034;-85
2023/10/17 00:51:48;;;;;;;7.80;1.30;;;;;;;17.88;66.68;99313.06;4954656;29;20026;-84
2023/10/17 00:54:14;;;;;;;6.60;1.30;;;;;;;17.88;66.60;99308.63;4954688;29;20039;-84
2023/10/17 00:56:43;;;;;;;6.07;1.50;;;;;;;17.91;66.39;99302.28;4965614;28;20294;-85
2023/10/17 00:59:09;;;;;;;7.55;1.90;;;;;;;17.91;66.71;99311.13;4973548;28;20073;-85
2023/10/17 01:01:35;;;;;;;8.32;1.20;;;;;;;17.92;66.76;99304.00;4973729;28;20027;-81
2023/10/17 01:04:00;;;;;;;7.67;1.30;;;;;;;17.94;67.01;99296.78;4973178;28;20509;-84
2023/10/17 01:08:54;;;;;;;6.15;1.05;;;;;;;17.94;67.53;99283.47;4973940;28;20046;-82
2023/10/17 01:11:20;;;;;;;6.50;1.47;;;;;;;17.95;67.67;99293.19;4974170;28;20027;-84
2023/10/17 01:13:49;;;;;;;7.05;1.58;;;;;;;17.95;67.39;99287.84;4974400;28;20031;-85
2023/10/17 01:16:16;;;;;;;5.53;1.23;;;;;;;17.92;67.87;99293.34;4975097;28;20039;-84
2023/10/17 01:18:44;;;;;;;5.70;1.05;;;;;;;17.95;67.93;99287.84;4973628;28;20034;-85
2023/10/17 01:21:20;;;;;;;8.97;1.60;;;;;;;17.92;69.15;99278.22;4974366;28;20086;-87
2023/10/17 01:23:50;;;;;;;7.15;1.35;;;;;;;17.90;68.61;99277.44;4974920;28;20069;-84
2023/10/17 01:26:20;;;;;;;7.72;1.77;;;;;;;17.90;68.96;99279.25;4953359;29;20473;-81
2023/10/17 01:28:47;;;;;;;7.47;1.60;;;;;;;17.92;68.81;99277.34;4972208;28;20027;-81
2023/10/17 01:31:22;;;;;;;9.05;1.70;;;;;;;17.93;69.15;99279.97;4966960;28;20448;-80
2023/10/17 01:33:53;;;;;;;6.23;1.43;;;;;;;17.91;69.56;99279.19;4953476;29;20034;-81
2023/10/17 01:36:19;;;;;;;6.20;1.35;;;;;;;17.93;69.44;99277.28;4953729;29;20047;-82
2023/10/17 01:38:46;;;;;;;9.20;1.63;;;;;;;17.92;69.78;99274.69;4953776;29;20031;-83
2023/10/17 01:41:12;;;;;;;6.53;1.50;;;;;;;17.93;69.43;99277.28;4953699;29;20278;-81
2023/10/17 01:43:41;;;;;;;9.60;2.00;;;;;;;17.96;69.69;99268.25;4953612;29;20086;-83
2023/10/17 01:46:11;;;;;;;5.68;1.40;;;;;;;17.97;69.39;99270.03;4953604;29;20423;-84
2023/10/17 01:48:36;;;;;;;6.47;1.65;;;;;;;17.97;69.32;99259.38;4953327;29;20031;-80
2023/10/17 01:51:12;;;;;;;10.20;1.80;;;;;;;17.98;69.30;99265.53;4953779;29;20055;-81
2023/10/17 01:53:39;;;;;;;8.40;1.60;;;;;;;17.98;69.31;99265.53;4953247;28;20035;-85
2023/10/17 01:56:14;;;;;;;7.68;2.08;;;;;;;17.99;69.42;99254.81;4958963;28;20121;-84
2023/10/17 01:58:50;;;;;;;6.73;1.67;;;;;;;17.97;71.01;99256.69;4974135;28;20030;-84
2023/10/17 02:01:17;;;;;;;7.32;1.63;;;;;;;17.96;70.05;99254.94;4992194;28;20026;-82
2023/10/17 02:03:44;;;;;;;6.30;1.80;;;;;;;17.99;69.78;99256.59;4984546;28;20033;-82
2023/10/17 02:06:16;;;;;;;7.05;1.55;;;;;;;17.99;70.06;99254.81;4973225;28;20051;-81
2023/10/17 02:08:46;;;;;;;8.45;1.80;;;;;;;18.00;70.05;99248.56;4973926;28;20038;-83
2023/10/17 02:11:50;;;;;;;6.67;1.90;;;;;;;18.02;69.98;99249.38;4973241;28;20031;-83
2023/10/17 02:14:06;;;;;;;6.85;1.60;;;;;;;18.01;70.17;99252.97;4969144;28;20113;-82
2023/10/17 02:16:32;;;;;;;8.35;1.58;;;;;;;18.01;70.11;99250.31;4972365;28;20030;-84
2023/10/17 02:18:58;;;;;;;6.70;1.67;;;;;;;18.03;71.10;99253.75;4972611;28;20518;-81
2023/10/17 02:21:27;;;;;;;6.07;1.53;;;;;;;18.04;70.32;99249.25;4974329;28;20031;-81
2023/10/17 02:23:52;;;;;;;10.50;2.67;;;;;;;18.01;70.84;99244.97;4973871;28;20027;-82
2023/10/17 02:26:21;;;;;;;12.55;1.90;;;;;;;18.02;70.91;99252.03;4971921;28;20376;-84
2023/10/17 02:28:53;;;;;;;6.63;1.73;;;;;;;18.03;71.24;99247.53;4972018;28;20113;-82
2023/10/17 02:31:29;;;;;;;6.22;1.75;;;;;;;18.00;71.68;99247.66;4964159;28;20444;-83
2023/10/17 02:33:58;;;;;;;5.30;1.52;;;;;;;18.05;71.41;99243.00;4934974;29;20475;-83
2023/10/17 02:36:24;;;;;;;6.65;1.30;;;;;;;18.07;71.58;99234.00;4952660;29;20054;-81
2023/10/17 02:38:50;;;;;;;4.20;1.30;;;;;;;18.10;71.27;99237.44;4952727;29;20036;-81
2023/10/17 02:41:19;;;;;;;6.40;1.13;;;;;;;18.02;72.61;99236.03;4952714;29;20023;-82
2023/10/17 02:43:46;;;;;;;5.55;1.40;;;;;;;18.08;72.15;99241.03;4952605;29;20031;-81
2023/10/17 02:46:13;;;;;;;6.05;1.30;;;;;;;18.14;72.02;99226.56;4952579;29;20551;-80
2023/10/17 02:48:38;;;;;;;6.07;0.90;;;;;;;18.14;72.46;99223.88;4952034;29;20103;-81
2023/10/17 02:53:51;;;;;;;3.97;1.00;;;;;;;18.15;72.39;99216.75;4952177;29;20083;-81
2023/10/17 02:56:20;;;;;;;3.40;0.80;;;;;;;18.18;72.34;99209.47;4960058;28;20093;-82
2023/10/17 02:59:04;;;;;;;6.25;1.10;;;;;;;18.18;72.58;99213.91;4954489;28;20636;-81
2023/10/17 03:01:39;;;;;;;4.37;0.90;;;;;;;18.15;72.64;99203.41;4972303;28;20043;-81
2023/10/17 03:04:12;;;;;;;4.00;0.90;;;;;;;18.19;72.51;99207.63;4971610;28;20179;-82
2023/10/17 03:06:40;;;;;;;5.20;1.13;;;;;;;18.17;72.49;99207.75;4971043;28;20050;-81
2023/10/17 03:12:07;;;;;;;4.43;0.80;;;;;;;18.20;72.46;99201.38;4971663;28;20037;-81
2023/10/17 03:17:04;;;;;;;6.10;1.13;;;;;;;18.19;72.92;99196.97;4971951;28;20035;-84
2023/10/17 03:19:30;;;;;;;4.97;1.25;;;;;;;18.24;72.43;99204.75;4967667;28;20463;-81
2023/10/17 03:22:24;;;;;;;3.80;0.80;;;;;;;18.24;73.45;99205.63;4934507;29;20114;-84
2023/10/17 03:24:46;;;;;;;3.47;0.85;;;;;;;18.26;72.76;99201.06;4966243;28;20719;-84
2023/10/17 03:27:36;;;;;;;6.50;1.08;;;;;;;18.28;72.89;99196.50;4970914;28;20031;-82
2023/10/17 03:30:06;;;;;;;4.67;0.90;;;;;;;18.29;72.80;99206.22;4970832;28;20106;-82
2023/10/17 03:32:34;;;;;;;3.90;0.73;;;;;;;18.32;73.09;99198.06;4970533;28;20023;-83
2023/10/17 03:35:02;;;;;;;3.85;0.70;;;;;;;18.38;72.44;99201.34;4971346;28;20031;-83
2023/10/17 03:37:29;;;;;;;4.72;0.80;;;;;;;18.39;72.77;99200.38;4953378;28;20156;-82
2023/10/17 03:39:57;;;;;;;3.25;0.57;;;;;;;18.41;72.59;99198.50;4971101;28;20027;-85
2023/10/17 03:45:12;;;;;;;2.55;0.60;;;;;;;18.45;72.86;99190.25;4970796;28;20060;-82
2023/10/17 03:47:52;;;;;;;3.45;0.60;;;;;;;18.45;73.47;99194.75;4970443;28;20026;-81
2023/10/17 03:53:08;;;;;;;3.85;0.73;;;;;;;18.48;73.28;99190.09;4972143;28;20114;-82
2023/10/17 03:55:35;;;;;;;2.90;0.70;;;;;;;18.51;73.25;99181.09;4972491;28;20372;-81
2023/10/17 03:58:08;;;;;;;3.50;0.80;;;;;;;18.52;73.71;99180.13;4971664;28;20041;-85
2023/10/17 04:00:45;;;;;;;4.72;0.70;;;;;;;18.55;73.51;99179.97;4987249;28;20049;-82
2023/10/17 04:03:19;;;;;;;3.80;0.80;;;;;;;18.58;73.66;99179.78;4986632;28;20011;-84
2023/10/17 04:05:49;;;;;;;3.65;0.90;;;;;;;18.56;73.59;99179.03;4971930;28;20372;-84
2023/10/17 04:08:26;;;;;;;4.83;1.00;;;;;;;18.60;73.88;99177.06;4973848;28;20040;-84
2023/10/17 04:13:37;;;;;;;7.18;1.38;;;;;;;18.63;74.05;99172.41;4970821;28;20090;-82
2023/10/17 04:16:09;;;;;;;7.78;1.20;;;;;;;18.65;73.97;99170.50;4964734;28;20633;-84
2023/10/17 04:18:37;;;;;;;5.85;1.70;;;;;;;18.61;74.56;99163.63;4952853;28;20035;-83
2023/10/17 04:21:27;;;;;;;6.27;1.70;;;;;;;18.64;74.17;99163.44;4970847;28;20081;-83
2023/10/17 04:23:55;;;;;;;6.72;1.40;;;;;;;18.63;74.41;99167.06;4974429;28;20521;-82
2023/10/17 04:26:34;;;;;;;4.88;1.52;;;;;;;18.63;74.49;99164.41;4974121;28;20109;-86
2023/10/17 04:29:11;;;;;;;8.25;1.75;;;;;;;18.63;74.77;99176.88;4974435;28;20026;-81
2023/10/17 04:31:37;;;;;;;3.80;1.15;;;;;;;18.67;74.28;99180.22;4974906;28;20494;-86
2023/10/17 04:34:06;;;;;;;6.53;1.57;;;;;;;18.67;74.23;99172.22;4974910;28;20309;-88
2023/10/17 04:36:39;;;;;;;6.78;1.60;;;;;;;18.70;74.16;99178.25;4974303;28;20503;-85
2023/10/17 04:44:23;;;;;;;6.05;1.60;;;;;;;18.74;74.35;99184.28;4973928;28;20042;-86
2023/10/17 04:47:06;;;;;;;6.23;1.60;;;;;;;18.76;73.91;99182.41;4977218;28;20030;-86
2023/10/17 04:49:36;;;;;;;7.57;1.63;;;;;;;18.76;73.86;99185.91;4977929;28;20038;-83
2023/10/17 04:52:06;;;;;;;8.02;1.90;;;;;;;18.74;73.84;99189.63;4974885;28;20443;-83
2023/10/17 04:57:02;;;;;;;7.18;1.80;;;;;;;18.76;73.55;99185.06;4974623;28;20053;-84
2023/10/17 04:59:41;;;;;;;9.07;2.07;;;;;;;18.76;73.67;99185.06;4965416;28;20026;-80
2023/10/17 06:18:49;;;;;;;5.55;1.33;;;;;;;18.98;74.39;99152.72;4972015;28;20102;-84
2023/10/17 06:23:22;;;;;;;5.53;1.10;;;;;;;19.00;74.42;99150.84;4972590;28;20026;-84
2023/10/17 06:24:06;;;;;;;5.70;1.13;;;;;;;19.00;74.55;99147.31;4968434;28;20038;-85
2023/10/17 06:34:19;;;;;;;5.13;1.10;;;;;;;19.00;74.61;99147.31;4972690;28;20054;-84
2023/10/17 06:36:49;;;;;;;4.80;1.23;;;;;;;19.03;74.39;99144.47;4974331;28;20058;-81
2023/10/17 06:39:19;;;;;;;5.25;1.20;;;;;;;19.04;73.95;99154.19;4974696;28;20053;-83
2023/10/17 06:41:46;;;;;;;5.53;1.10;;;;;;;19.06;74.23;99158.50;4971765;28;20027;-84
2023/10/17 06:44:21;;;;;;;3.80;1.00;;;;;;;19.07;73.95;99168.22;4972088;28;20050;-83
2023/10/17 06:46:55;;;;;;;5.55;1.17;;;;;;;19.08;74.12;99158.41;4972268;28;20061;-84
2023/10/17 06:54:40;;;;;;;8.47;1.30;;;;;;;19.10;73.79;99169.84;4973607;28;20046;-84
2023/10/17 06:57:18;;;;;;;5.78;1.20;;;;;;;19.20;73.63;99178.19;4971304;28;20042;-85
2023/10/17 06:59:50;;;;;;;8.15;1.23;;;;;;;19.24;73.96;99176.22;4981622;28;20026;-84
2023/10/17 07:02:27;;;;;;;4.70;1.10;;;;;;;19.24;73.62;99170.88;4991010;28;20105;-84
2023/10/17 07:04:55;;;;;;;3.63;1.15;;;;;;;19.24;73.74;99168.22;4973641;28;20035;-84
2023/10/17 07:07:22;;;;;;;4.70;1.00;;;;;;;19.29;73.68;99175.00;4954139;28;20038;-84
2023/10/17 07:09:52;;;;;;;4.32;1.10;;;;;;;19.27;73.94;99176.88;4953782;28;20114;-83
2023/10/17 07:12:19;;;;;;;5.28;1.10;;;;;;;19.26;74.10;99171.63;4971203;28;20065;-84
2023/10/17 07:14:48;;;;;;;5.13;1.15;;;;;;;19.31;74.08;99167.75;4971820;28;20030;-85
2023/10/17 07:17:25;;;;;;;3.80;0.90;;;;;;;19.36;73.44;99176.34;4971250;28;20473;-83
2023/10/17 07:19:58;;;;;;;4.87;1.10;;;;;;;19.38;73.46;99180.75;4971473;28;20062;-83
2023/10/17 07:22:24;;;;;;;4.28;1.00;;;;;;;19.39;73.39;99175.31;4972087;28;20035;-85
2023/10/17 07:24:50;;;;;;;3.60;0.90;;;;;;;19.41;74.19;99170.75;4971221;28;20062;-83
2023/10/17 07:27:18;;;;;;;7.83;1.20;;;;;;;19.49;73.43;99183.63;4970856;28;20081;-84
2023/10/17 07:29:45;;;;;;;4.93;0.93;;;;;;;19.51;73.31;99179.06;4971620;28;20466;-83
2023/10/17 07:32:17;;;;;;;6.32;1.38;;;;;;;19.53;73.26;99170.97;4955644;28;20061;-84
2023/10/17 07:34:46;;;;;;;4.20;1.10;;;;;;;19.62;73.13;99170.41;4973658;28;20475;-83
2023/10/17 07:42:40;;;;;;;7.45;1.20;;;;;;;19.93;71.89;99184.66;4934218;28;20166;-84
2023/10/17 07:45:15;;;;;;;6.47;1.30;;;;;;;19.97;72.14;99190.66;4973167;28;20027;-84
2023/10/17 07:47:41;;;;;;;10.05;1.00;;;;;;;20.02;71.72;99185.94;4973503;28;20113;-84
2023/10/17 07:50:12;;;;;;;3.37;1.00;;;;;;;20.03;71.40;99180.47;4954095;28;20035;-83
2023/10/17 07:52:49;;;;;;;5.78;1.20;;;;;;;20.04;71.82;99192.88;4970306;28;20029;-84
2023/10/17 07:55:19;;;;;;;4.47;1.10;;;;;;;20.00;71.81;99190.47;4971216;28;20599;-83
2023/10/17 07:57:51;;;;;;;8.30;1.30;;;;;;;20.01;71.68;99192.19;4934154;29;20035;-83
2023/10/17 08:00:38;;;;;;;4.35;1.10;;;;;;;20.01;71.88;99182.38;4965786;28;20035;-84
2023/10/17 08:03:15;;;;;;;4.77;1.10;;;;;;;20.04;71.57;99189.34;4953843;28;20019;-85
2023/10/17 08:08:33;;;;;;;9.85;1.40;;;;;;;20.07;71.80;99176.66;4970650;28;20041;-84
2023/10/17 08:10:58;;;;;;;7.05;1.27;;;;;;;20.14;71.41;99176.28;4970662;28;20488;-84
2023/10/17 08:13:24;;;;;;;7.37;1.27;;;;;;;20.14;71.72;99170.94;4953253;28;20114;-84
2023/10/17 08:15:55;;;;;;;6.20;1.50;;;;;;;20.25;71.08;99168.47;4970412;28;20030;-84
2023/10/17 08:18:27;;;;;;;6.03;1.40;;;;;;;20.38;70.89;99163.19;4952742;28;20027;-84
2023/10/17 08:23:26;;;;;;;9.57;1.40;;;;;;;20.62;70.23;99155.47;4970370;28;20516;-84
2023/10/17 08:25:59;;;;;;;6.90;1.10;;;;;;;20.71;69.93;99163.84;4970093;28;20650;-84
2023/10/17 08:28:46;;;;;;;9.17;1.47;;;;;;;20.82;69.60;99152.47;4970434;28;20174;-84
2023/10/17 08:41:59;;;;;;;11.27;1.47;;;;;;;21.17;68.13;99166.22;4969976;28;20034;-84
2023/10/17 08:44:31;;;;;;;17.48;1.85;;;;;;;21.17;67.77;99149.31;4970271;28;20503;-86
2023/10/17 08:46:57;;;;;;;9.10;1.63;;;;;;;21.21;67.93;99150.81;4952801;28;20487;-83
2023/10/17 08:49:23;;;;;;;13.30;2.08;;;;;;;21.31;67.63;99157.28;4969827;28;20038;-84
2023/10/17 08:51:49;;;;;;;9.90;1.50;;;;;;;21.43;67.17;99155.59;4970343;28;20027;-85
2023/10/17 08:54:18;;;;;;;48.80;5.90;;;;;;;21.43;67.31;99160.09;4970569;28;20406;-84
2023/10/17 08:56:45;;;;;;;58.00;7.57;;;;;;;21.50;67.18;99156.06;4952394;28;20509;-83
2023/10/17 08:59:12;;;;;;;33.07;3.97;;;;;;;21.47;66.85;99148.22;4975570;28;20106;-84
2023/10/17 09:01:37;;;;;;;29.77;3.25;;;;;;;21.58;66.91;99140.31;4965853;28;20027;-85
2023/10/17 09:04:04;;;;;;;25.40;3.43;;;;;;;21.75;66.59;99138.34;4970997;28;20097;-84
2023/10/17 09:06:32;;;;;;;9.77;2.00;;;;;;;21.86;65.48;99141.13;4975687;28;20514;-83
2023/10/17 09:11:35;;;;;;;33.20;3.47;;;;;;;22.07;65.23;99133.41;4977568;28;20082;-84
2023/10/17 09:14:35;;;;;;;10.35;1.90;;;;;;;22.28;64.57;99132.00;4974074;28;20049;-83
2023/10/17 09:17:11;;;;;;;78.97;8.73;;;;;;;22.45;63.37;99136.16;4969256;28;20388;-84
2023/10/17 09:19:56;;;;;;;12.38;1.73;;;;;;;22.54;63.33;99140.88;4973737;28;20049;-83
2023/10/17 09:22:22;;;;;;;28.80;3.75;;;;;;;22.65;62.41;99138.28;4955828;28;20041;-84
2023/10/17 09:24:50;;;;;;;17.67;2.37;;;;;;;22.75;62.45;99132.22;4973352;28;20027;-83
2023/10/17 09:27:18;;;;;;;38.72;3.35;;;;;;;22.83;62.40;99127.19;4952680;29;20105;-83
2023/10/17 09:29:59;;;;;;;35.75;3.75;;;;;;;22.93;61.24;99120.16;4953916;29;20070;-85
2023/10/17 09:32:35;;;;;;;17.48;2.33;;;;;;;23.02;60.83;99128.47;4969975;28;20573;-84
2023/10/17 09:35:13;;;;;;;97.23;9.10;;;;;;;23.10;61.01;99123.41;4973086;28;20051;-84
2023/10/17 09:37:43;;;;;;;9.52;1.65;;;;;;;23.18;60.40;99118.31;4973067;28;20034;-83
2023/10/17 09:40:14;;;;;;;25.15;3.00;;;;;;;23.21;60.38;99123.44;4955563;28;20423;-83
2023/10/17 09:42:42;;;;;;;22.52;2.30;;;;;;;23.21;59.95;99107.34;4972927;28;20399;-83
2023/10/17 09:45:09;;;;;;;14.32;2.38;;;;;;;23.17;60.00;99129.19;4973271;28;20031;-83
2023/10/17 09:47:39;;;;;;;12.70;1.90;;;;;;;23.23;59.49;99099.19;4972805;28;20074;-83
2023/10/17 09:50:10;;;;;;;18.15;2.35;;;;;;;23.49;59.05;99099.03;4972873;28;20065;-83
2023/10/17 09:52:37;;;;;;;18.33;2.25;;;;;;;23.65;59.51;99104.97;4972768;28;20027;-84
2023/10/17 09:55:06;;;;;;;15.77;1.85;;;;;;;23.75;58.44;99102.41;4955264;28;20015;-84
2023/10/17 09:57:36;;;;;;;16.60;1.92;;;;;;;23.87;58.19;99108.66;4964128;28;20039;-83
2023/10/17 10:00:17;;;;;;;13.57;1.80;;;;;;;24.05;57.95;99098.31;4960189;28;20049;-82
2023/10/17 10:02:44;;;;;;;10.75;1.65;;;;;;;24.17;58.16;99088.41;4953054;29;20028;-83
2023/10/17 10:05:20;;;;;;;9.05;1.85;;;;;;;24.16;57.56;99101.97;4954779;28;20077;-84
2023/10/17 10:07:46;;;;;;;14.80;1.75;;;;;;;24.16;57.37;99104.66;4972600;28;20027;-84
2023/10/17 10:10:46;;;;;;;10.73;1.70;;;;;;;23.96;57.52;99100.84;4972705;28;20019;-83
2023/10/17 10:13:14;;;;;;;12.52;1.48;;;;;;;23.94;58.04;99103.63;4972721;28;20038;-84
2023/10/17 10:16:01;;;;;;;10.00;1.25;;;;;;;23.94;58.06;99109.88;4971331;28;20053;-83
2023/10/17 10:18:35;;;;;;;4.87;0.90;;;;;;;23.86;57.82;99114.16;4971930;28;20026;-83
2023/10/17 10:21:12;;;;;;;8.55;1.33;;;;;;;23.83;57.94;99111.69;4972570;28;20401;-84
2023/10/17 10:23:39;;;;;;;8.48;1.38;;;;;;;23.85;57.87;99115.13;4954740;28;20031;-83
2023/10/17 10:26:19;;;;;;;8.02;1.20;;;;;;;23.76;57.59;99122.94;4972495;28;20030;-83
2023/10/17 10:28:51;;;;;;;9.52;1.40;;;;;;;23.72;57.66;99124.13;4972276;28;20023;-83
2023/10/17 10:31:22;;;;;;;8.43;1.10;;;;;;;23.77;57.62;99116.59;4972131;28;20034;-84
2023/10/17 10:33:49;;;;;;;4.18;0.93;;;;;;;23.98;57.80;99113.16;4971716;28;20030;-83
2023/10/17 10:36:16;;;;;;;7.75;1.30;;;;;;;24.10;57.46;99107.84;4971710;28;20043;-83
2023/10/17 10:38:42;;;;;;;10.25;1.05;;;;;;;24.34;57.37;99103.19;4971890;28;20155;-83
2023/10/17 10:41:08;;;;;;;7.63;1.30;;;;;;;24.65;56.64;99108.75;4954852;28;20058;-83
2023/10/17 10:43:34;;;;;;;6.05;1.35;;;;;;;24.80;55.79;99090.53;4972121;28;20054;-83
2023/10/17 10:46:01;;;;;;;11.33;1.30;;;;;;;24.91;55.83;99096.88;4972096;28;20035;-83
2023/10/17 10:48:26;;;;;;;10.60;1.52;;;;;;;25.02;55.04;99095.97;4971777;28;20027;-82
2023/10/17 10:50:55;;;;;;;7.22;1.10;;;;;;;25.06;54.77;99098.28;4957377;28;20431;-82
2023/10/17 10:53:39;;;;;;;13.82;1.63;;;;;;;25.03;54.90;99097.69;4955751;28;20031;-83
2023/10/17 10:56:13;;;;;;;8.70;1.50;;;;;;;25.07;54.20;99096.44;4965001;28;20043;-82
2023/10/17 10:58:55;;;;;;;10.43;1.40;;;;;;;25.05;54.53;99091.19;4955023;28;20377;-84
2023/10/17 11:01:21;;;;;;;11.15;1.98;;;;;;;25.02;54.36;99085.22;4990860;28;20037;-83
2023/10/17 11:03:48;;;;;;;12.40;1.70;;;;;;;24.89;54.08;99082.69;4982331;28;20027;-84
2023/10/17 11:06:19;;;;;;;20.50;2.10;;;;;;;24.79;54.28;99079.91;4971452;28;20150;-82
2023/10/17 11:08:46;;;;;;;15.50;1.80;;;;;;;24.67;54.85;99079.03;4971428;28;20093;-83
2023/10/17 11:11:16;;;;;;;15.77;1.95;;;;;;;24.74;54.30;99076.72;4971890;28;20023;-83
2023/10/17 11:14:02;;;;;;;9.57;1.48;;;;;;;24.84;54.43;99074.97;4971466;28;20069;-83
2023/10/17 11:16:28;;;;;;;9.20;1.50;;;;;;;24.93;54.01;99052.66;4971019;28;20414;-83
2023/10/17 11:18:53;;;;;;;10.70;1.67;;;;;;;24.84;54.47;99047.19;4970890;28;20026;-83
2023/10/17 11:21:21;;;;;;;5.13;1.10;;;;;;;24.90;54.96;99071.78;4971729;28;20064;-83
2023/10/17 11:23:50;;;;;;;12.38;1.50;;;;;;;24.83;54.72;99059.81;4971254;28;20023;-83
2023/10/17 11:26:22;;;;;;;15.30;1.52;;;;;;;24.63;54.28;99072.22;4950069;28;20062;-82
2023/10/17 11:28:51;;;;;;;15.48;1.80;;;;;;;24.64;54.54;99066.69;4951548;29;20023;-83
2023/10/17 11:31:27;;;;;;;14.52;2.00;;;;;;;24.69;55.11;99060.06;4959135;28;20034;-84
2023/10/17 11:34:06;;;;;;;5.80;1.20;;;;;;;24.70;55.35;99061.75;4970565;28;20507;-83
2023/10/17 11:36:46;;;;;;;10.88;1.70;;;;;;;24.94;54.75;99043.59;4970953;28;20138;-85
2023/10/17 11:39:15;;;;;;;9.45;1.83;;;;;;;25.13;54.46;99047.44;4971103;28;20034;-83
2023/10/17 11:41:55;;;;;;;27.65;3.08;;;;;;;25.23;53.82;99045.69;4971085;28;20034;-82
2023/10/17 11:44:25;;;;;;;15.35;2.35;;;;;;;25.35;54.18;99034.84;4970926;28;20074;-84
2023/10/17 11:47:07;;;;;;;23.43;2.90;;;;;;;25.40;53.25;99037.16;4958586;28;20055;-82
2023/10/17 11:49:47;;;;;;;22.50;2.60;;;;;;;25.49;53.19;99036.38;4954274;28;20073;-83
2023/10/17 11:52:13;;;;;;;88.82;9.45;;;;;;;25.56;53.63;99021.41;4970663;28;20038;-83
2023/10/17 11:55:00;;;;;;;94.47;8.57;;;;;;;25.65;53.17;99025.09;4953359;28;20514;-82
2023/10/17 11:57:27;;;;;;;12.88;2.20;;;;;;;25.83;53.05;99029.88;4953375;28;20462;-83
2023/10/17 11:59:56;;;;;;;38.22;4.32;;;;;;;25.76;52.78;99006.16;4974026;28;20061;-82
2023/10/17 12:02:22;;;;;;;27.25;3.35;;;;;;;25.79;52.62;98997.78;4989811;28;20033;-84
2023/10/17 12:04:48;;;;;;;16.42;2.70;;;;;;;25.65;52.14;99006.22;4973212;28;20352;-82
2023/10/17 12:07:13;;;;;;;18.30;3.20;;;;;;;25.54;52.21;99000.94;4970661;28;20082;-84
2023/10/17 12:09:39;;;;;;;34.80;4.37;;;;;;;25.71;52.01;98994.94;4970535;28;20031;-83
2023/10/17 12:12:06;;;;;;;13.70;1.60;;;;;;;25.77;52.19;98993.50;4970446;28;20077;-83
2023/10/17 12:14:33;;;;;;;11.75;1.52;;;;;;;25.80;52.25;98991.41;4970681;28;20435;-84
2023/10/17 12:17:00;;;;;;;9.52;1.88;;;;;;;25.84;52.17;98983.91;4970462;28;20034;-84
2023/10/17 12:19:27;;;;;;;19.43;2.23;;;;;;;25.79;51.91;98983.44;4970310;28;20027;-84
2023/10/17 12:21:54;;;;;;;10.48;1.60;;;;;;;25.68;52.50;98976.31;4952972;28;20027;-83
2023/10/17 12:24:24;;;;;;;12.70;2.00;;;;;;;25.61;52.69;98970.63;4970495;28;20542;-83
2023/10/17 12:26:50;;;;;;;9.85;1.60;;;;;;;25.49;53.13;98971.69;4970019;28;20178;-83
2023/10/17 12:29:26;;;;;;;10.57;1.73;;;;;;;25.30;53.14;98969.72;4970184;28;20038;-84
2023/10/17 12:31:59;;;;;;;7.50;1.83;;;;;;;25.18;52.95;98961.69;4970234;28;20030;-82
2023/10/17 12:34:25;;;;;;;25.48;2.95;;;;;;;25.23;52.50;98954.09;4970849;28;20105;-83
2023/10/17 12:36:51;;;;;;;7.47;1.40;;;;;;;25.21;52.32;98957.88;4970318;28;20122;-83
2023/10/17 12:39:19;;;;;;;8.13;1.77;;;;;;;25.41;52.22;98949.91;4972409;28;20031;-85
2023/10/17 12:41:46;;;;;;;11.85;1.92;;;;;;;25.50;51.71;98941.03;4972806;28;20035;-84
2023/10/17 12:44:12;;;;;;;8.88;1.73;;;;;;;25.57;51.49;98947.63;4954628;29;20284;-87
2023/10/17 12:46:38;;;;;;;8.93;1.57;;;;;;;25.55;51.60;98940.66;4964011;28;20391;-83
2023/10/17 12:49:03;;;;;;;13.10;2.33;;;;;;;25.55;51.73;98937.97;4973784;28;20033;-83
2023/10/17 12:51:28;;;;;;;9.60;1.70;;;;;;;25.61;51.34;98940.97;4974042;28;20392;-83
2023/10/17 12:53:54;;;;;;;8.87;1.70;;;;;;;25.75;51.59;98942.44;4956247;28;20034;-83
2023/10/17 12:56:20;;;;;;;18.67;3.42;;;;;;;25.93;50.83;98926.44;4965602;28;20439;-84
2023/10/17 12:58:47;;;;;;;21.73;2.47;;;;;;;26.11;50.73;98943.78;4958974;28;20031;-84
2023/10/17 13:01:12;;;;;;;14.13;2.10;;;;;;;26.17;50.59;98951.38;4993177;28;20398;-85
2023/10/17 13:03:38;;;;;;;15.17;2.03;;;;;;;26.28;49.72;98937.75;4985669;28;20042;-83
2023/10/17 13:06:09;;;;;;;14.27;1.87;;;;;;;26.22;49.41;98939.16;4973591;28;20054;-86
2023/10/17 13:08:35;;;;;;;13.82;2.00;;;;;;;26.24;49.16;98949.81;4973940;28;20035;-84
2023/10/17 13:11:02;;;;;;;11.55;1.73;;;;;;;26.27;49.44;98932.50;4973779;28;20364;-83
2023/10/17 13:13:30;;;;;;;9.02;1.67;;;;;;;26.29;49.46;98936.75;4973602;28;20030;-84
2023/10/17 13:15:57;;;;;;;10.73;1.60;;;;;;;26.40;49.34;98926.81;4972920;28;20110;-85
2023/10/17 13:18:24;;;;;;;13.23;1.83;;;;;;;26.57;49.17;98927.97;4972797;28;20507;-84
2023/10/17 13:20:50;;;;;;;67.88;6.88;;;;;;;26.57;48.71;98934.22;4973015;28;20023;-86
2023/10/17 13:23:16;;;;;;;12.80;2.00;;;;;;;26.53;48.47;98916.59;4973287;28;20471;-82
2023/10/17 13:25:42;;;;;;;10.87;1.70;;;;;;;26.57;48.89;98920.72;4952483;29;20027;-86
2023/10/17 13:28:07;;;;;;;5.85;1.45;;;;;;;26.56;48.82;98937.91;4954247;29;20041;-85
2023/10/17 13:30:33;;;;;;;9.37;1.73;;;;;;;26.37;49.16;98923.41;4948088;28;20049;-85
2023/10/17 13:32:58;;;;;;;11.18;1.88;;;;;;;26.15;48.89;98940.69;4972982;28;20155;-85
2023/10/17 13:35:24;;;;;;;11.17;1.60;;;;;;;25.96;49.81;98935.25;4973230;28;20090;-85
2023/10/17 13:37:54;;;;;;;11.50;1.97;;;;;;;25.85;50.07;98938.91;4968731;28;20399;-84
2023/10/17 13:40:21;;;;;;;9.75;1.67;;;;;;;25.74;49.87;98927.25;4969054;28;20030;-84
2023/10/17 13:42:50;;;;;;;10.00;1.58;;;;;;;25.69;50.17;98924.13;4955786;28;20038;-84
2023/10/17 13:45:16;;;;;;;11.60;1.73;;;;;;;25.63;50.32;98921.94;4975415;28;20027;-85
2023/10/17 13:47:42;;;;;;;12.43;2.13;;;;;;;25.56;50.05;98907.31;4956850;28;20521;-84
2023/10/17 13:50:13;;;;;;;14.87;2.07;;;;;;;25.35;50.41;98916.28;4956561;28;20031;-82
2023/10/17 13:52:41;;;;;;;10.63;1.77;;;;;;;25.06;50.71;98896.28;4974966;28;20033;-82
2023/10/17 13:55:09;;;;;;;14.73;1.98;;;;;;;25.02;50.90;98904.78;4974552;28;20278;-85
2023/10/17 13:57:35;;;;;;;75.15;9.40;;;;;;;24.94;51.16;98914.34;4957138;28;20062;-85
2023/10/17 14:00:06;;;;;;;12.00;1.70;;;;;;;24.98;50.94;98914.94;4967389;28;20501;-84
2023/10/17 14:02:32;;;;;;;21.15;2.72;;;;;;;25.04;51.30;98914.41;4956884;28;20115;-85
2023/10/17 14:04:58;;;;;;;28.40;3.05;;;;;;;25.03;50.61;98906.47;4970858;28;20038;-83
2023/10/17 14:07:23;;;;;;;20.60;1.70;;;;;;;24.96;50.32;98891.81;4974354;28;20035;-83
2023/10/17 14:09:55;;;;;;;20.23;2.08;;;;;;;25.05;50.58;98899.94;4973791;28;20026;-84
2023/10/17 14:12:21;;;;;;;11.32;2.13;;;;;;;25.04;50.72;98897.41;4973882;28;20030;-83
2023/10/17 14:14:46;;;;;;;12.53;1.93;;;;;;;24.91;50.94;98876.91;4958421;28;20038;-81